Naval Air Station/ Jrb, Texas
Current Conditions -  °F | °C
As of 11:52 AM on Thursday 23 Oct 2014 (Local Time) from KNFW Reporting Station
Broken Clouds Broken Clouds  
Wind Chill: 77°   Ceiling: 20000
Heat Index: 78°   Visibility: 10mi
Dew Point: 55°   Wind: 7mph
Humidity: 46%   Direction: 160°SSE
Pressure: 30.2"   Gusts: NA
Location:  32.7772°N, 97.4184°W
Report Text: KNFW 231652Z 16006KT 10SM FEW080 BKN200 25/13 A3020 RMK AO2 SLP207 T02500128 CHINO N VISNO N $
Loading
Personal Weather Stations






























Interactive Weather Map
Tropical Storm Tracking
New forecast layout! Learn more

10-Day Weather Forecast

Advertisements
Track Severe Weather on mobile